Flight Track Log - Related Links

Times and Time Zones

All times are in EDT time to prevent confusion due to time zone crossing. See the N75801 flight status page for this flight to view local times or setup timezone preferences in your user account.

Time Position Orientation Groundspeed Altitude Reporting Facility
EDT Latitude Longitude Course Direction KTS MPH feet Rate Location/Type
Mon 12:00:39 PM 45.6994 -84.5972 170° South 97 112 5,000  Level Minneapolis Center
Mon 12:01:41 PM 45.6753 -84.5892 167° South 93 107 4,900  Descending Minneapolis Center
Mon 12:02:43 PM 45.6483 -84.5819 169° South 92 106 5,000 97 Climbing Minneapolis Center
Mon 12:03:45 PM 45.6228 -84.5761 171° South 93 107 5,100 48 Climbing Minneapolis Center
Mon 12:04:47 PM 45.5958 -84.5678 168° South 93 107 5,100 48 Level Minneapolis Center
Mon 12:05:49 PM 45.5683 -84.5611 170° South 94 108 5,200 -48 Climbing Minneapolis Center
Mon 12:06:00 PM 45.7032 -84.5979 170° South  Level Estimated
Mon 12:06:52 PM 45.5439 -84.5517 165° South 93 107 5,000  Level Minneapolis Center
Mon 12:07:54 PM 45.5164 -84.5450 170° South 93 107 5,100 48 Climbing Minneapolis Center
Mon 12:08:56 PM 45.4900 -84.5400 172° South 95 109 5,100 -48 Level Minneapolis Center
Mon 12:09:58 PM 45.4636 -84.5269 161° South 94 108 5,000 -48 Descending Minneapolis Center
Mon 12:11:00 PM 45.4372 -84.5228 174° South 95 109 5,000  Level Minneapolis Center
Mon 12:12:02 PM 45.4086 -84.5186 174° South 96 110 5,000  Level Minneapolis Center
Mon 12:13:04 PM 45.3842 -84.5111 168° South 92 106 5,000  Level Minneapolis Center
Mon 12:14:06 PM 45.3578 -84.5011 165° South 92 106 5,000  Level Minneapolis Center
Mon 12:15:08 PM 45.3303 -84.4939 170° South 93 107 5,000  Level Minneapolis Center
Mon 12:16:10 PM 45.3064 -84.4836 163° South 92 106 5,000  Level Minneapolis Center
Mon 12:17:12 PM 45.2792 -84.4767 170° South 93 107 5,000  Level Minneapolis Center
Mon 12:18:14 PM 45.2547 -84.4697 169° South 91 105 5,000  Level Minneapolis Center
Mon 12:19:16 PM 45.2272 -84.4628 170° South 94 108 5,000 48 Level Minneapolis Center
Mon 12:20:18 PM 45.2025 -84.4564 170° South 91 105 5,100  Climbing Minneapolis Center
Mon 12:21:20 PM 45.1756 -84.4500 171° South 92 106 5,000  Descending Minneapolis Center
Mon 12:22:22 PM 45.1486 -84.4481 177° South 96 110 5,100  Climbing Minneapolis Center
Mon 12:23:24 PM 45.1211 -84.4422 171° South 94 108 5,000 -97 Descending Minneapolis Center
Mon 12:24:26 PM 45.0961 -84.4344 168° South 93 107 4,900  Descending Minneapolis Center
Mon 12:25:28 PM 45.0697 -84.4286 171° South 90 104 5,000 48 Climbing Minneapolis Center
Mon 12:26:30 PM 45.0464 -84.4211 167° South 88 101 5,000  Level Minneapolis Center
Mon 12:27:33 PM 45.0217 -84.4125 166° South 86 99 5,000  Level Minneapolis Center
Mon 12:28:35 PM 44.9967 -84.4014 163° South 87 100 5,000  Level Minneapolis Center
Mon 12:29:37 PM 44.9731 -84.3928 166° South 88 101 5,000 -48 Level Minneapolis Center
Mon 12:30:39 PM 44.9458 -84.3814 164° South 95 109 4,900  Descending Minneapolis Center
Mon 12:31:41 PM 44.9231 -84.3731 165° South 89 102 5,000 48 Climbing Minneapolis Center
Mon 12:32:43 PM 44.8969 -84.3617 163° South 90 104 5,000  Level Minneapolis Center
Mon 12:33:45 PM 44.8731 -84.3528 165° South 91 105 5,000  Level Minneapolis Center
Mon 12:34:47 PM 44.8461 -84.3431 166° South 93 107 5,000 -48 Level Minneapolis Center
Mon 12:35:49 PM 44.8200 -84.3317 163° South 92 106 4,900 -48 Descending Minneapolis Center
Mon 12:36:51 PM 44.7961 -84.3211 163° South 92 106 4,900 48 Level Minneapolis Center
Mon 12:37:53 PM 44.7706 -84.3114 165° South 90 104 5,000 48 Climbing Minneapolis Center
Mon 12:38:56 PM 44.7467 -84.3006 162° South 91 105 5,000  Level Minneapolis Center
Mon 12:39:58 PM 44.7200 -84.2908 165° South 92 106 5,000  Level Minneapolis Center
Mon 12:41:00 PM 44.6944 -84.2822 167° South 94 108 5,000  Level Minneapolis Center
Mon 12:42:02 PM 44.6678 -84.2742 168° South 93 107 5,000 48 Level Minneapolis Center
Mon 12:43:04 PM 44.6419 -84.2706 174° South 94 108 5,100 48 Climbing Minneapolis Center
Mon 12:44:06 PM 44.6144 -84.2639 170° South 94 108 5,100  Level Minneapolis Center
Mon 12:45:08 PM 44.5858 -84.2589 173° South 96 110 5,100  Level Minneapolis Center
Mon 12:46:10 PM 44.5592 -84.2547 174° South 97 112 5,100 -48 Level Minneapolis Center
Mon 12:47:12 PM 44.5283 -84.2547 180° South 103 119 5,000 -97 Descending Minneapolis Center
Mon 12:48:14 PM 44.5014 -84.2500 173° South 99 114 4,900 -48 Descending Minneapolis Center
Mon 12:49:16 PM 44.4733 -84.2447 172° South 96 110 4,900 48 Level Minneapolis Center
Mon 12:50:18 PM 44.4469 -84.2397 172° South 97 112 5,000 48 Climbing Minneapolis Center
Mon 12:51:20 PM 44.4194 -84.2364 175° South 94 108 5,000 -48 Level Minneapolis Center
Mon 12:52:23 PM 44.3925 -84.2272 166° South 98 113 4,900 -48 Descending Minneapolis Center
Mon 12:53:25 PM 44.3633 -84.2244 176° South 99 114 4,900 48 Level Minneapolis Center
Mon 12:54:27 PM 44.3375 -84.2200 173° South 97 112 5,000 48 Climbing Minneapolis Center
Mon 12:55:29 PM 44.3086 -84.2133 171° South 97 112 5,000  Level Minneapolis Center
Mon 12:56:31 PM 44.2800 -84.2069 171° South 99 114 5,000  Level Minneapolis Center
Mon 12:57:33 PM 44.2519 -84.2031 174° South 101 116 5,000 -48 Level Minneapolis Center
Mon 12:58:35 PM 44.2228 -84.1994 175° South 98 113 4,900 -48 Descending Minneapolis Center
Mon 12:59:37 PM 44.1950 -84.1939 172° South 100 115 4,900  Level Minneapolis Center
Mon 01:00:39 PM 44.1650 -84.1878 172° South 101 116 4,900  Level Minneapolis Center
Mon 01:01:41 PM 44.1383 -84.1839 174° South 99 114 4,900  Level Minneapolis Center
Mon 01:02:43 PM 44.1089 -84.1853 182° South 99 114 4,900 48 Level Minneapolis Center
Mon 01:03:45 PM 44.0822 -84.1872 183° South 98 113 5,000  Climbing Minneapolis Center
Mon 01:04:47 PM 44.0511 -84.1894 183° South 104 120 4,900  Descending Minneapolis Center
Mon 01:05:50 PM 44.0217 -84.1889 171° South 100 115 5,000 48 Climbing Minneapolis Center
Mon 01:06:00 PM 44.0183 -84.1818 171° South  Level FlightAware Approximate
Mon 01:06:52 PM 43.9925 -84.1906 182° South 104 120 5,000  Level Minneapolis Center
Mon 01:07:54 PM 43.9622 -84.1911 181° South 103 119 5,000  Level Minneapolis Center
Mon 01:09:00 PM 43.9327 -84.1828 169° South  Level FlightAware Approximate
Mon 01:16:00 PM 43.7450 -84.1302 169° South  Level FlightAware Approximate
Mon 01:17:00 PM 43.7182 -84.1227 169° South  Level FlightAware Approximate
Mon 01:18:00 PM 43.6914 -84.1152 169° South  Level FlightAware Approximate
Mon 01:19:00 PM 43.6646 -84.1078 169° South  Level FlightAware Approximate
Mon 01:20:00 PM 43.6378 -84.1003 169° South  Level FlightAware Approximate
Mon 01:21:00 PM 43.6110 -84.0928 169° South  Level FlightAware Approximate
Mon 01:22:00 PM 43.5841 -84.0854 169° South  Level FlightAware Approximate
Mon 01:23:00 PM 43.5573 -84.0779 169° South  Level FlightAware Approximate
Mon 01:24:00 PM 43.5305 -84.0705 169° South  Level FlightAware Approximate
Mon 01:25:00 PM 43.5029 -84.0690 187° South  Level FlightAware Approximate
Mon 01:26:00 PM 43.4757 -84.0735 187° South  Level FlightAware Approximate
Mon 01:27:00 PM 43.4486 -84.0780 187° South  Level FlightAware Approximate
Mon 01:28:00 PM 43.4214 -84.0826 187° South  Level FlightAware Approximate
Mon 01:29:00 PM 43.3942 -84.0871 187° South  Level FlightAware Approximate
Mon 01:30:00 PM 43.3671 -84.0917 187° South  Level FlightAware Approximate
Mon 01:31:00 PM 43.3399 -84.0962 187° South  Level FlightAware Approximate
Mon 01:32:00 PM 43.3128 -84.1007 187° South  Level FlightAware Approximate
Mon 01:33:00 PM 43.2856 -84.1052 187° South  Level FlightAware Approximate
Mon 01:34:00 PM 43.2584 -84.1097 187° South  Level FlightAware Approximate
Mon 01:35:00 PM 43.2313 -84.1142 187° South  Level FlightAware Approximate
Mon 01:36:00 PM 43.2041 -84.1179 184° South  Level FlightAware Approximate
Mon 01:37:00 PM 43.1768 -84.1207 184° South  Level FlightAware Approximate
Mon 01:38:00 PM 43.1496 -84.1234 184° South  Level FlightAware Approximate
Mon 01:39:00 PM 43.1223 -84.1262 184° South  Level FlightAware Approximate
Mon 01:40:00 PM 43.0950 -84.1289 184° South  Level FlightAware Approximate
Mon 01:41:00 PM 43.0677 -84.1316 184° South  Level FlightAware Approximate
Mon 01:42:00 PM 43.0404 -84.1343 184° South  Level FlightAware Approximate
Mon 01:43:00 PM 43.0131 -84.1371 184° South  Level FlightAware Approximate
Mon 01:44:00 PM 42.9859 -84.1398 184° South  Level FlightAware Approximate
Mon 01:45:00 PM 42.9586 -84.1425 184° South  Level FlightAware Approximate
Mon 01:46:00 PM 42.9313 -84.1452 184° South  Level FlightAware Approximate
Mon 01:47:00 PM 42.9040 -84.1479 184° South  Level FlightAware Approximate
Mon 01:48:00 PM 42.8767 -84.1509 186° South  Level FlightAware Approximate
Mon 01:49:00 PM 42.8495 -84.1548 186° South  Level FlightAware Approximate
Mon 01:50:00 PM 42.8223 -84.1586 186° South  Level FlightAware Approximate
Mon 01:51:00 PM 42.7951 -84.1625 186° South  Level FlightAware Approximate
Mon 01:52:00 PM 42.7679 -84.1663 186° South  Level FlightAware Approximate
Mon 01:53:00 PM 42.7407 -84.1702 186° South  Level FlightAware Approximate
Mon 01:54:00 PM 42.7135 -84.1740 186° South  Level FlightAware Approximate
Mon 01:55:00 PM 42.6863 -84.1779 186° South  Level FlightAware Approximate
Mon 01:56:00 PM 42.6591 -84.1817 186° South  Level FlightAware Approximate
Mon 01:57:00 PM 42.6319 -84.1855 186° South  Level FlightAware Approximate
Mon 01:58:00 PM 42.6046 -84.1893 186° South  Level FlightAware Approximate
Mon 01:59:00 PM 42.5774 -84.1932 186° South  Level FlightAware Approximate
Mon 02:00:00 PM 42.5502 -84.1970 186° South  Level FlightAware Approximate
Mon 02:01:00 PM 42.5230 -84.2008 186° South  Level FlightAware Approximate
Mon 02:02:00 PM 42.4958 -84.2046 186° South  Level FlightAware Approximate
Mon 02:03:00 PM 42.4686 -84.2084 186° South  Level FlightAware Approximate
Mon 02:04:00 PM 42.4414 -84.2122 186° South  Level FlightAware Approximate
Mon 02:05:00 PM 42.4142 -84.2161 186° South  Level FlightAware Approximate
Mon 02:06:00 PM 42.3870 -84.2199 186° South  Level FlightAware Approximate
Mon 02:07:00 PM 42.3597 -84.2237 186° South  Level FlightAware Approximate
Mon 02:08:00 PM 42.3325 -84.2275 186° South  Level FlightAware Approximate
Mon 02:09:00 PM 42.3053 -84.2312 186° South  Level FlightAware Approximate
Mon 02:10:00 PM 42.2764 -84.2372 189° South  Level FlightAware Approximate
Mon 02:11:00 PM 42.2476 -84.2431 189° South  Level FlightAware Approximate
Mon 02:12:00 PM 42.2187 -84.2490 189° South  Level FlightAware Approximate
Mon 02:13:00 PM 42.1898 -84.2549 189° South  Level FlightAware Approximate
Mon 02:14:00 PM 42.1609 -84.2608 189° South  Level FlightAware Approximate
Mon 02:15:00 PM 42.1320 -84.2666 189° South  Level FlightAware Approximate
Mon 02:16:00 PM 42.1031 -84.2725 189° South  Level FlightAware Approximate
Mon 02:17:00 PM 42.0742 -84.2784 189° South  Level FlightAware Approximate
Mon 02:18:00 PM 42.0447 -84.2837 183° South  Level FlightAware Approximate
Mon 02:19:00 PM 42.0155 -84.2858 183° South  Level FlightAware Approximate
Mon 02:20:00 PM 41.9863 -84.2879 183° South  Level FlightAware Approximate
Mon 02:21:00 PM 41.9571 -84.2900 183° South  Level FlightAware Approximate
Mon 02:22:00 PM 41.9280 -84.2921 183° South  Level FlightAware Approximate
Mon 02:23:00 PM 41.8988 -84.2941 183° South  Level FlightAware Approximate
Mon 02:24:00 PM 41.8696 -84.2962 183° South  Level FlightAware Approximate
Mon 02:25:00 PM 41.8404 -84.2983 183° South  Level FlightAware Approximate
Mon 02:26:00 PM 41.8132 -84.2945 130° Southeast  Level FlightAware Approximate
Mon 02:27:00 PM 41.7944 -84.2645 130° Southeast  Level FlightAware Approximate
Mon 02:28:00 PM 41.7755 -84.2345 130° Southeast  Level FlightAware Approximate
Mon 02:29:00 PM 41.7567 -84.2046 130° Southeast  Level FlightAware Approximate
Mon 02:30:00 PM 41.7378 -84.1747 130° Southeast  Level FlightAware Approximate
Mon 02:31:00 PM 41.7189 -84.1448 130° Southeast  Level FlightAware Approximate
Mon 02:32:00 PM 41.7001 -84.1149 130° Southeast  Level FlightAware Approximate
Mon 02:33:00 PM 41.6812 -84.0851 130° Southeast  Level FlightAware Approximate
Mon 02:34:00 PM 41.6623 -84.0552 130° Southeast  Level FlightAware Approximate
Mon 02:35:00 PM 41.6434 -84.0254 130° Southeast  Level FlightAware Approximate
Mon 02:36:00 PM 41.6245 -83.9956 130° Southeast  Level FlightAware Approximate
Mon 02:37:00 PM 41.6056 -83.9658 130° Southeast  Level FlightAware Approximate
Mon 02:38:00 PM 41.5867 -83.9360 130° Southeast  Level FlightAware Approximate
Mon 02:39:00 PM 41.5677 -83.9063 130° Southeast  Level FlightAware Approximate
Mon 02:40:00 PM 41.5488 -83.8765 130° Southeast  Level FlightAware Approximate
Mon 02:41:00 PM 41.5299 -83.8468 130° Southeast  Level FlightAware Approximate
Mon 02:42:00 PM 41.5109 -83.8171 130° Southeast  Level FlightAware Approximate
Mon 02:43:00 PM 41.4915 -83.7880 134° Southeast  Level FlightAware Approximate
Mon 02:44:00 PM 41.4713 -83.7598 134° Southeast  Level FlightAware Approximate
Mon 02:45:00 PM 41.4511 -83.7316 134° Southeast  Level FlightAware Approximate
Mon 02:46:00 PM 41.4310 -83.7033 134° Southeast  Level FlightAware Approximate
Mon 02:47:00 PM 41.4120 -83.6739 124° Southeast  Level FlightAware Approximate
Mon 02:48:00 PM 41.3958 -83.6415 124° Southeast  Level FlightAware Approximate
Mon 02:49:00 PM 41.3910 -83.6301 124° Southeast  Level Estimated
Mon 02:50:00 PM 41.3910 -83.6301 124° Southeast  Level Estimated

Login

Don't have an account? Register now (free) for customized features, flight alerts, and more!